METAR Data
IDs: Format: Raw Decoded Include TAF

Data at: 1342 UTC 07 Jul 2020

METAR for:KDAA (Fort Belvoir/Davison, VA, US)
Text:KDAA 071306Z AUTO 00000KT 10SM SCT007 OVC015 23/22 A3007 RMK AO2 CIG 007V015 SLP185 $
Temperature: 23.0°C ( 73°F)
Dewpoint: 22.0°C ( 72°F) [RH = 94%]
Pressure (altimeter):30.07 inches Hg (1018.4 mb) [Sea level pressure: 1018.5 mb]
Winds:calm
Visibility:10 or more sm (16+ km)
Ceiling:1500 feet AGL
Clouds: scattered clouds at 700 feet AGL, overcast cloud deck at 1500 feet AGL
QC Flag:automated observation with no human augmentation; SOME DATA ABOVE MAY BE INACCURATE!!!"$" is an indication the sensor requires maintenance.